createdAt,value
2023-05-09T05:03:16.168Z,0.50
2023-05-09T05:04:16.028Z,0.50
2023-05-09T05:05:16.155Z,0.50
2023-05-09T05:06:16.936Z,0.50
2023-05-09T05:07:15.908Z,0.50
2023-05-09T05:08:16.887Z,0.50
2023-05-09T05:09:15.884Z,0.34
2023-05-09T05:10:16.871Z,0.34
2023-05-09T05:11:16.893Z,0.34
2023-05-09T05:12:16.847Z,0.34
2023-05-09T05:13:16.868Z,0.34
2023-05-09T05:14:15.828Z,0.34
2023-05-09T05:15:16.983Z,0.34
2023-05-09T05:16:16.825Z,0.34
2023-05-09T05:17:16.829Z,0.34
2023-05-09T05:18:15.798Z,0.34
2023-05-09T05:19:15.840Z,0.34
2023-05-09T05:20:16.795Z,0.34
2023-05-09T05:21:15.777Z,0.34
2023-05-09T05:22:15.820Z,0.34
2023-05-09T05:23:16.778Z,0.34
2023-05-09T05:24:15.786Z,0.34
2023-05-09T05:25:17.025Z,0.34
2023-05-09T05:26:16.883Z,0.34
2023-05-09T05:27:16.946Z,0.34
2023-05-09T05:28:15.981Z,0.34
2023-05-09T05:29:17.046Z,0.34
2023-05-09T05:30:16.979Z,0.34
2023-05-09T05:31:17.036Z,0.34
2023-05-09T05:32:17.083Z,0.34
2023-05-09T05:33:17.141Z,0.34
2023-05-09T05:34:17.180Z,0.34
2023-05-09T05:35:17.560Z,0.34
2023-05-09T05:36:17.238Z,0.34
2023-05-09T05:37:16.233Z,0.34
2023-05-09T05:38:17.333Z,0.34
2023-05-09T05:39:16.348Z,0.34
2023-05-09T05:40:17.390Z,0.34
2023-05-09T05:41:17.388Z,0.34
2023-05-09T05:42:17.428Z,0.34
2023-05-09T05:43:17.477Z,0.34
2023-05-09T05:44:16.521Z,0.37
2023-05-09T05:45:16.795Z,0.42
2023-05-09T05:46:17.621Z,0.50
2023-05-09T05:47:17.652Z,0.52
2023-05-09T05:48:16.841Z,0.50
2023-05-09T05:49:16.612Z,0.54
2023-05-09T05:50:16.622Z,0.50
2023-05-09T05:51:17.730Z,0.50
2023-05-09T05:52:16.628Z,0.50
2023-05-09T05:53:16.650Z,0.46
2023-05-09T05:54:17.687Z,0.54
2023-05-09T05:55:17.864Z,0.54
2023-05-09T05:56:17.690Z,0.54
2023-05-09T05:57:16.694Z,0.55
2023-05-09T05:58:17.694Z,0.56
2023-05-09T05:59:17.738Z,0.55
2023-05-09T06:00:17.749Z,0.53
2023-05-09T06:01:17.724Z,0.53
2023-05-09T06:02:17.779Z,0.53
2023-05-09T06:03:16.786Z,0.55
2023-05-09T06:04:16.765Z,0.54
2023-05-09T06:05:17.771Z,0.53
2023-05-09T06:06:17.826Z,0.57
2023-05-09T06:07:17.952Z,0.50
2023-05-09T06:09:50.539Z,0.50
2023-05-09T06:10:51.724Z,0.50
2023-05-09T06:11:50.562Z,0.50
2023-05-09T06:12:52.126Z,0.50
2023-05-09T06:13:54.139Z,0.50
2023-05-09T06:14:57.829Z,0.50
2023-05-09T06:17:10.023Z,0.50
2023-05-09T06:20:47.964Z,0.50
2023-05-09T06:21:49.123Z,0.50
2023-05-09T06:22:48.885Z,0.50
2023-05-09T06:24:05.813Z,0.50
2023-05-09T06:24:48.859Z,0.50
2023-05-09T06:25:48.852Z,0.50
2023-05-09T06:26:48.830Z,0.50
2023-05-09T06:27:47.926Z,0.50
2023-05-09T06:28:47.921Z,0.50
2023-05-09T06:29:47.901Z,0.54
2023-05-09T06:30:48.509Z,0.50
2023-05-09T06:31:49.103Z,0.52
2023-05-09T06:32:48.109Z,0.51
2023-05-09T06:33:48.809Z,0.54
2023-05-09T06:34:47.797Z,0.56
2023-05-09T06:35:48.807Z,0.52
2023-05-09T06:36:47.808Z,0.50
2023-05-09T06:37:49.291Z,0.52
2023-05-09T06:38:48.875Z,0.53
2023-05-09T06:39:47.765Z,0.50
2023-05-09T06:40:48.768Z,0.51
2023-05-09T06:41:48.778Z,0.52
2023-05-09T06:42:47.731Z,0.54
2023-05-09T06:43:49.953Z,0.51
2023-05-09T06:44:48.748Z,0.50
2023-05-09T06:45:48.713Z,0.53
2023-05-09T06:46:47.723Z,0.56
2023-05-09T06:47:48.714Z,0.64
2023-05-09T06:48:48.704Z,0.54
2023-05-09T06:49:48.706Z,0.52
2023-05-09T06:50:48.723Z,0.55
2023-05-09T06:55:16.941Z,0.50
2023-05-09T06:56:19.469Z,0.50
2023-05-09T06:57:17.195Z,0.50
2023-05-09T06:58:17.121Z,0.50
2023-05-09T06:59:16.105Z,0.50
2023-05-09T07:00:16.619Z,0.50
2023-05-09T07:01:16.145Z,0.50
2023-05-09T07:02:17.236Z,0.49
2023-05-09T07:03:17.186Z,0.50
2023-05-09T07:04:17.092Z,0.52
2023-05-09T07:05:17.434Z,0.53
2023-05-09T07:07:35.425Z,0.50
2023-05-09T07:08:35.983Z,0.50
2023-05-09T07:09:36.032Z,0.50
2023-05-09T07:10:35.080Z,0.50
2023-05-09T07:12:54.000Z,0.50
2023-05-09T07:13:54.017Z,0.50
2023-05-09T07:14:55.012Z,0.50
2023-05-09T07:15:54.307Z,0.50
2023-05-09T07:18:13.016Z,0.50
2023-05-09T07:19:12.931Z,0.50
2023-05-09T07:20:15.111Z,0.50
2023-05-09T07:21:13.594Z,0.50
2023-05-09T07:22:12.989Z,0.50
2023-05-09T07:23:14.411Z,0.50
2023-05-09T07:24:14.125Z,0.50
2023-05-09T07:25:13.178Z,0.50
2023-05-09T07:26:13.977Z,0.54
2023-05-09T07:27:13.924Z,0.51
2023-05-09T07:28:13.100Z,0.43
2023-05-09T07:29:13.991Z,0.42
2023-05-09T07:30:14.312Z,0.56
2023-05-09T07:31:13.168Z,0.79
2023-05-09T07:32:13.271Z,0.89
2023-05-09T07:33:14.338Z,0.70
2023-05-09T07:34:27.557Z,0.70
2023-05-09T07:39:11.229Z,0.50
2023-05-09T07:40:12.117Z,0.50
2023-05-09T10:06:41.316Z,0.50
2023-05-09T10:07:41.177Z,0.50
2023-05-09T10:08:42.185Z,0.50
2023-05-09T10:09:42.157Z,0.50
2023-05-09T10:10:41.166Z,0.50
2023-05-09T10:11:42.134Z,0.50
2023-05-09T10:12:42.172Z,0.34
2023-05-09T10:13:42.154Z,0.34
2023-05-09T10:14:41.129Z,0.34
2023-05-09T10:15:53.021Z,0.34
2023-05-09T10:16:44.283Z,0.34
2023-05-09T10:17:41.295Z,0.34
2023-05-09T10:18:41.277Z,0.34
2023-05-09T10:19:41.095Z,0.34
2023-05-09T10:20:42.089Z,0.34
2023-05-09T10:21:42.074Z,0.34
2023-05-09T10:22:42.221Z,0.34
2023-05-09T10:23:41.073Z,0.34
2023-05-09T10:24:42.093Z,0.34
2023-05-09T10:25:42.069Z,0.34
2023-05-09T10:26:41.054Z,0.34
2023-05-09T10:27:42.026Z,0.34
2023-05-09T10:28:42.023Z,0.34
2023-05-09T10:29:41.009Z,0.34
2023-05-09T10:30:41.024Z,0.34
2023-05-09T10:31:41.078Z,0.34
2023-05-09T10:32:42.024Z,0.34
2023-05-09T10:33:41.982Z,0.34
2023-05-09T10:34:41.979Z,0.34
2023-05-09T10:35:41.969Z,0.34
2023-05-09T10:36:41.994Z,0.34
2023-05-09T10:37:41.981Z,0.34
2023-05-09T10:38:42.053Z,0.34
2023-05-09T10:39:41.933Z,0.34
2023-05-09T10:40:40.935Z,0.34
2023-05-09T10:41:40.907Z,0.34
2023-05-09T10:42:40.934Z,0.34
2023-05-09T10:43:40.908Z,0.34
2023-05-09T10:44:41.936Z,0.34
2023-05-09T10:45:42.288Z,0.34
2023-05-09T10:46:40.967Z,0.34
2023-05-09T10:47:41.950Z,0.34
2023-05-09T10:48:40.859Z,0.34
2023-05-09T10:49:41.861Z,0.34
2023-05-09T10:50:40.897Z,0.73
2023-05-09T10:51:41.886Z,1.92
2023-05-09T10:52:41.954Z,1.74
2023-05-09T10:53:40.995Z,1.20
2023-05-09T10:54:41.947Z,1.64
2023-05-09T10:55:40.904Z,0.99
2023-05-09T10:56:40.868Z,0.69
2023-05-09T10:57:41.825Z,0.34
2023-05-09T10:58:41.829Z,0.34
2023-05-09T10:59:41.830Z,0.34
2023-05-09T11:00:40.857Z,0.34
2023-05-09T11:01:40.902Z,0.34
2023-05-09T11:02:42.022Z,0.34
2023-05-09T11:03:42.040Z,0.34
2023-05-09T11:04:40.974Z,0.34
2023-05-09T11:05:42.024Z,0.34
2023-05-09T11:06:41.088Z,0.34
2023-05-09T11:07:42.048Z,0.34
2023-05-09T11:08:42.033Z,0.34
2023-05-09T11:09:42.066Z,0.34
2023-05-09T11:10:42.198Z,0.34
2023-05-09T11:11:42.072Z,0.34
2023-05-09T11:12:41.177Z,0.81
2023-05-09T11:13:42.127Z,0.34
2023-05-09T11:14:41.160Z,0.42
2023-05-09T11:15:42.214Z,0.34
2023-05-09T11:16:41.253Z,0.34
2023-05-09T11:17:41.289Z,0.34
2023-05-09T11:18:41.272Z,0.35
2023-05-09T11:19:41.292Z,0.34
2023-05-09T11:20:41.427Z,0.34
2023-05-09T11:21:41.566Z,0.34
2023-05-09T11:22:42.375Z,0.34
2023-05-09T11:23:41.442Z,0.34
2023-05-09T11:24:42.450Z,0.65
2023-05-09T11:25:42.505Z,0.52
2023-05-09T11:26:42.640Z,1.54
2023-05-09T11:27:42.622Z,1.53
2023-05-09T11:28:42.921Z,1.03
2023-05-09T11:29:42.589Z,0.97
2023-05-09T11:30:41.752Z,1.24
2023-05-09T11:31:42.727Z,0.91
2023-05-09T11:32:42.798Z,0.66
2023-05-09T11:33:41.781Z,0.34
2023-05-09T11:34:41.789Z,0.34
2023-05-09T11:35:42.934Z,0.34
2023-05-09T11:36:42.317Z,0.36
2023-05-09T11:37:42.942Z,0.36
2023-05-09T11:38:42.904Z,0.51
2023-05-09T11:39:42.933Z,0.68
2023-05-09T11:40:42.952Z,0.75
2023-05-09T11:41:43.339Z,0.96
2023-05-09T11:42:43.162Z,2.32
2023-05-09T11:43:43.062Z,2.16
2023-05-09T11:44:42.074Z,1.34
2023-05-09T11:45:42.138Z,1.06
2023-05-09T11:46:43.100Z,0.89
2023-05-09T11:47:43.124Z,1.31
2023-05-09T11:48:42.198Z,0.61
2023-05-09T11:49:42.255Z,0.73
2023-05-09T11:50:43.238Z,0.82
2023-05-09T11:51:43.236Z,1.05
2023-05-09T11:52:43.267Z,0.75
2023-05-09T11:53:42.306Z,0.68
2023-05-09T11:54:43.352Z,0.50
2023-05-09T11:55:42.450Z,0.47
2023-05-09T11:56:43.450Z,0.55
2023-05-09T11:57:42.443Z,0.84
2023-05-09T11:58:43.583Z,0.81
2023-05-09T11:59:42.580Z,0.94
2023-05-09T12:00:42.524Z,0.68
2023-05-09T12:01:42.646Z,1.88
2023-05-09T12:02:43.759Z,1.27
2023-05-09T12:03:42.684Z,1.55
2023-05-09T12:04:43.862Z,1.56
2023-05-09T12:07:01.818Z,0.50
2023-05-09T12:08:02.502Z,0.50
2023-05-09T12:09:02.703Z,0.50
2023-05-09T12:10:02.635Z,0.50
2023-05-09T12:11:01.473Z,0.50
2023-05-09T12:12:02.372Z,0.52
2023-05-09T12:13:02.416Z,0.73
2023-05-09T12:14:02.504Z,0.55
2023-05-09T12:15:02.341Z,0.42
2023-05-09T12:16:02.398Z,0.40
2023-05-09T12:17:02.317Z,0.48
2023-05-09T12:18:01.350Z,0.61
2023-05-09T12:19:02.418Z,0.47
2023-05-09T12:20:01.625Z,0.52
2023-05-09T12:21:01.336Z,0.56
2023-05-09T12:22:02.272Z,0.68
2023-05-09T12:23:02.310Z,0.63
2023-05-09T12:24:02.275Z,0.42
2023-05-09T12:25:02.255Z,0.58
2023-05-09T12:26:02.283Z,0.88
2023-05-09T12:27:02.257Z,0.94
2023-05-09T12:28:02.229Z,1.43
2023-05-09T12:29:02.241Z,1.15
2023-05-09T12:30:02.355Z,1.36
2023-05-09T12:31:01.272Z,1.10
2023-05-09T12:32:02.249Z,1.74
2023-05-09T12:33:02.290Z,1.51
2023-05-09T12:34:03.334Z,1.85
2023-05-09T12:38:36.158Z,0.50
2023-05-09T12:39:35.977Z,0.50
2023-05-09T12:43:12.499Z,0.50
2023-05-09T12:44:11.873Z,0.50
2023-05-09T12:45:12.244Z,0.50
2023-05-09T12:46:13.264Z,0.50
2023-05-09T12:47:13.937Z,0.50
2023-05-09T12:48:13.091Z,0.50
2023-05-09T12:49:11.880Z,0.50
2023-05-09T12:50:12.391Z,0.50
2023-05-09T12:51:12.790Z,0.50
2023-05-09T12:52:12.313Z,0.46
2023-05-09T12:53:12.892Z,0.52
2023-05-09T12:54:12.916Z,0.52
2023-05-09T12:55:13.167Z,0.43
2023-05-09T12:56:12.968Z,0.63
2023-05-09T12:57:12.816Z,0.62
2023-05-09T12:58:12.824Z,0.66
2023-05-09T12:59:12.853Z,0.66
2023-05-09T13:00:13.192Z,0.50
2023-05-09T13:01:13.033Z,0.46
2023-05-09T13:02:11.991Z,0.65
2023-05-09T13:03:13.026Z,0.73
2023-05-09T13:04:13.254Z,0.73
2023-05-09T13:05:13.482Z,0.60
2023-05-09T13:06:13.109Z,0.60
2023-05-09T13:07:13.549Z,0.52
2023-05-09T13:08:13.196Z,0.59
2023-05-09T13:09:13.373Z,0.54
2023-05-09T13:10:12.707Z,0.54
2023-05-09T13:12:31.047Z,0.50
2023-05-09T13:13:32.003Z,0.50
2023-05-09T13:14:31.059Z,0.50
2023-05-09T13:15:32.032Z,0.50
2023-05-09T13:16:31.161Z,0.50
2023-05-09T13:17:31.072Z,0.49
2023-05-09T13:18:31.972Z,0.53
2023-05-09T13:19:30.963Z,0.64
2023-05-09T13:20:31.052Z,1.24
2023-05-09T13:21:32.108Z,1.28
2023-05-09T13:22:32.035Z,1.09
2023-05-09T13:23:31.945Z,0.65
2023-05-09T13:24:30.989Z,0.50
2023-05-09T13:25:31.912Z,0.94
2023-05-09T13:26:31.925Z,0.87
2023-05-09T13:27:30.973Z,0.91
2023-05-09T13:28:30.913Z,0.98
2023-05-09T13:29:30.908Z,0.69
2023-05-09T13:30:31.917Z,0.75
2023-05-09T13:31:31.913Z,0.63
2023-05-09T13:32:32.150Z,0.87
2023-05-09T13:33:30.921Z,0.96
2023-05-09T13:34:30.929Z,1.12
2023-05-09T13:35:31.862Z,1.75
2023-05-09T13:36:30.836Z,1.90
2023-05-09T13:37:31.855Z,1.43
2023-05-09T13:38:31.821Z,0.97
2023-05-09T13:39:31.817Z,0.98
2023-05-09T13:40:30.885Z,1.35
2023-05-09T13:41:31.818Z,1.12
2023-05-09T13:42:30.813Z,1.05
2023-05-09T13:43:30.799Z,1.09
2023-05-09T13:44:31.804Z,1.05
2023-05-09T13:45:31.770Z,1.17
2023-05-09T13:46:30.841Z,0.99
2023-05-09T13:47:30.808Z,0.94
2023-05-09T13:48:31.980Z,0.81
2023-05-09T13:49:30.914Z,0.86
2023-05-09T13:50:30.873Z,1.22
2023-05-09T13:51:31.897Z,1.14
2023-05-09T13:52:31.941Z,0.91
2023-05-09T13:53:32.058Z,0.75
2023-05-09T13:54:31.982Z,0.75
2023-05-09T13:55:31.992Z,0.69
2023-05-09T13:56:31.979Z,1.04
2023-05-09T13:57:32.018Z,1.61
2023-05-09T13:58:32.002Z,1.06
2023-05-09T13:59:31.029Z,0.90
2023-05-09T14:00:31.072Z,0.76
2023-05-09T14:01:32.197Z,0.64
2023-05-09T14:02:32.134Z,0.65
2023-05-09T14:03:32.155Z,0.66
2023-05-09T14:04:32.187Z,0.61
2023-05-09T14:05:31.158Z,0.66
2023-05-09T14:06:31.201Z,1.02
2023-05-09T14:07:32.308Z,1.19
2023-05-09T14:08:32.297Z,0.74
2023-05-09T14:09:32.316Z,0.82
2023-05-09T14:10:32.380Z,0.81
2023-05-09T14:11:32.415Z,0.83
2023-05-09T14:12:32.495Z,0.60
2023-05-09T14:13:32.574Z,0.72
2023-05-09T14:14:32.568Z,0.95
2023-05-09T14:15:31.540Z,1.65
2023-05-09T14:16:32.621Z,1.37
2023-05-09T14:17:31.512Z,1.06
2023-05-09T14:18:32.626Z,0.82
2023-05-09T14:19:31.555Z,0.72
2023-05-09T14:20:31.700Z,0.57
2023-05-09T14:21:32.757Z,0.59
2023-05-09T14:22:32.660Z,0.93
2023-05-09T14:23:31.784Z,1.10
2023-05-09T14:24:32.780Z,1.38
2023-05-09T14:25:32.808Z,1.48
2023-05-09T14:26:32.836Z,0.83
2023-05-09T14:27:32.840Z,0.94
2023-05-09T14:28:31.863Z,0.87
2023-05-09T14:29:32.873Z,0.96
2023-05-09T14:30:31.914Z,0.99
2023-05-09T14:31:32.006Z,1.63
2023-05-09T14:32:31.992Z,1.52
2023-05-09T14:33:32.987Z,0.97
2023-05-09T14:34:32.011Z,0.84
2023-05-09T14:35:33.087Z,0.81
2023-05-09T14:36:33.219Z,0.75
2023-05-09T14:37:33.085Z,0.94
2023-05-09T14:38:33.091Z,0.80
2023-05-09T14:39:33.154Z,0.90
2023-05-09T14:40:33.168Z,1.20
2023-05-09T14:41:33.222Z,1.22
2023-05-09T14:42:32.229Z,1.23
2023-05-09T14:43:32.213Z,1.39
2023-05-09T14:44:32.305Z,0.96
2023-05-09T14:45:33.308Z,1.14
2023-05-09T14:46:32.403Z,1.37
2023-05-09T14:47:32.384Z,1.60
2023-05-09T14:48:33.411Z,1.29
2023-05-09T14:49:32.498Z,1.21
2023-05-09T14:50:32.514Z,1.47
2023-05-09T14:51:33.521Z,1.79
2023-05-09T14:52:32.678Z,2.04
2023-05-09T14:53:33.573Z,2.23
2023-05-09T14:54:32.597Z,3.57
2023-05-09T14:55:32.620Z,3.02
2023-05-09T14:56:32.713Z,2.47
2023-05-09T14:57:33.726Z,1.68
2023-05-09T14:58:33.733Z,1.38
2023-05-09T14:59:34.767Z,2.03
2023-05-09T15:00:32.754Z,1.38
2023-05-09T15:01:32.913Z,0.95
2023-05-09T15:02:33.809Z,1.12
2023-05-09T15:03:33.733Z,1.43
2023-05-09T15:04:32.789Z,2.02
2023-05-09T15:05:33.729Z,2.07
2023-05-09T15:06:33.717Z,1.54
2023-05-09T15:07:33.729Z,2.11
2023-05-09T15:08:33.809Z,2.50
2023-05-09T15:09:32.680Z,3.19
2023-05-09T15:10:32.694Z,3.76
2023-05-09T15:11:46.688Z,3.55
2023-05-09T15:12:33.667Z,2.79
2023-05-09T15:13:33.777Z,2.33
2023-05-09T15:14:33.691Z,1.70
2023-05-09T15:15:33.651Z,1.63
2023-05-09T15:16:32.698Z,2.12
2023-05-09T15:17:32.645Z,2.94
2023-05-09T15:18:32.625Z,2.53
2023-05-09T15:19:33.634Z,2.27
2023-05-09T15:20:32.632Z,1.79
2023-05-09T15:21:32.610Z,1.64
2023-05-09T15:22:33.618Z,1.40
2023-05-09T15:23:33.634Z,1.59
2023-05-09T15:24:33.706Z,2.26
2023-05-09T15:25:32.582Z,1.67
2023-05-09T15:26:33.594Z,2.70
2023-05-09T15:27:32.565Z,2.20
2023-05-09T15:28:33.556Z,2.92
2023-05-09T15:29:33.552Z,2.37
